PWSweather.com
Personal Weather Stations
Station Observations
KMAMEDFI2
Medfield, MA 02052

Medfield, MA 02052

Lat: 42.1900822, Lon: -71.3296889

Elevation: 138

Station Type: Rainwise WS MK-III

http://www.medfieldweather.com

High Low Average
Temperature 72.4°F22.4°F 52.6°F11.4°F 60.9°F16.1°F
Dew Point 60.9°F16.1°F 51.8°F11.0°F 55.6°F13.1°F
Winds 2.8 mph WNW4.5 mph WNW Calm Calm 1.1 mph 1.8 mph
Wind Gusts 6.5 mph10.5 mph -- 2.1 mph3.4 mph
Humidity 97% 65% 84%
Pressure 30.00 in1015.90 in 29.88 in1011.90 in -
Precipitation 0.00 in0.00 in - -
Hour Temp Dew Point Humidity Winds Wind Gusts Pressure Precip Precip Rate Daily Precip Total
12:00 AM 52.8°F11.6°C 52.0°F11.1°C 97% 0.7 mph E1.1 kmh E 1.3 mph2.1 kmh 29.91 in1012.9 mb - 0.00 in0.0 mm 0.00 in0.0 mm
12:20 AM 52.6°F11.4°C 51.8°F11.0°C 97% Calm Calm -- 29.91 in1012.9 mb - 0.00 in0.0 mm 0.00 in0.0 mm
12:30 AM 52.9°F11.6°C 52.1°F11.2°C 97% 1.8 mph ENE2.9 kmh ENE 2.6 mph4.2 kmh 29.91 in1012.9 mb - 0.00 in0.0 mm 0.00 in0.0 mm
12:40 AM 53.4°F11.9°C 52.5°F11.4°C 97% 1.1 mph ENE1.8 kmh ENE 2.6 mph4.2 kmh 29.90 in1012.5 mb - 0.00 in0.0 mm 0.00 in0.0 mm
12:50 AM 53.6°F12.0°C 52.8°F11.6°C 97% 1.9 mph E3.1 kmh E 2.6 mph4.2 kmh 29.90 in1012.5 mb - 0.00 in0.0 mm 0.00 in0.0 mm
01:00 AM 53.8°F12.1°C 53.0°F11.7°C 97% 0.5 mph E0.8 kmh E 1.3 mph2.1 kmh 29.90 in1012.5 mb - 0.00 in0.0 mm 0.00 in0.0 mm
01:10 AM 53.9°F12.2°C 53.1°F11.7°C 97% 1.6 mph E2.6 kmh E 2.6 mph4.2 kmh 29.90 in1012.5 mb - 0.00 in0.0 mm 0.00 in0.0 mm
01:20 AM 54.1°F12.3°C 53.3°F11.8°C 97% 0.3 mph ESE0.5 kmh ESE 2.6 mph4.2 kmh 29.90 in1012.5 mb - 0.00 in0.0 mm 0.00 in0.0 mm
01:30 AM 54.1°F12.3°C 53.3°F11.8°C 97% 0.6 mph ESE1.0 kmh ESE 2.6 mph4.2 kmh 29.90 in1012.5 mb - 0.00 in0.0 mm 0.00 in0.0 mm
01:40 AM 54.2°F12.3°C 53.4°F11.9°C 97% 0.1 mph ESE0.2 kmh ESE 1.3 mph2.1 kmh 29.89 in1012.2 mb - 0.00 in0.0 mm 0.00 in0.0 mm
01:50 AM 54.2°F12.3°C 53.4°F11.9°C 97% 0.7 mph ESE1.1 kmh ESE -- 29.89 in1012.2 mb - 0.00 in0.0 mm 0.00 in0.0 mm
02:00 AM 54.3°F12.4°C 53.5°F11.9°C 97% Calm Calm -- 29.89 in1012.2 mb - 0.00 in0.0 mm 0.00 in0.0 mm
02:10 AM 54.4°F12.4°C 53.6°F12.0°C 97% Calm Calm -- 29.89 in1012.2 mb - 0.00 in0.0 mm 0.00 in0.0 mm
02:20 AM 54.1°F12.3°C 53.3°F11.8°C 97% Calm Calm -- 29.88 in1011.9 mb - 0.00 in0.0 mm 0.00 in0.0 mm
02:30 AM 53.8°F12.1°C 53.0°F11.7°C 97% 0.3 mph SSE0.5 kmh SSE -- 29.88 in1011.9 mb - 0.00 in0.0 mm 0.00 in0.0 mm
02:40 AM 53.5°F11.9°C 52.7°F11.5°C 97% Calm Calm -- 29.89 in1012.2 mb - 0.00 in0.0 mm 0.00 in0.0 mm
02:50 AM 53.4°F11.9°C 52.6°F11.4°C 97% Calm Calm -- 29.89 in1012.2 mb - 0.00 in0.0 mm 0.00 in0.0 mm
03:00 AM 53.4°F11.9°C 52.6°F11.4°C 97% Calm Calm -- 29.89 in1012.2 mb - 0.00 in0.0 mm 0.00 in0.0 mm
03:10 AM 53.5°F11.9°C 52.6°F11.4°C 97% Calm Calm -- 29.89 in1012.2 mb - 0.00 in0.0 mm 0.00 in0.0 mm
03:20 AM 53.6°F12.0°C 52.8°F11.6°C 97% Calm Calm -- 29.89 in1012.2 mb - 0.00 in0.0 mm 0.00 in0.0 mm
03:30 AM 53.7°F12.1°C 52.9°F11.6°C 97% Calm Calm -- 29.89 in1012.2 mb - 0.00 in0.0 mm 0.00 in0.0 mm
03:40 AM 53.8°F12.1°C 53.0°F11.7°C 97% Calm Calm -- 29.89 in1012.2 mb - 0.00 in0.0 mm 0.00 in0.0 mm
03:50 AM 53.9°F12.2°C 53.1°F11.7°C 97% Calm Calm -- 29.89 in1012.2 mb - 0.00 in0.0 mm 0.00 in0.0 mm
04:00 AM 53.9°F12.2°C 53.1°F11.7°C 97% Calm Calm -- 29.89 in1012.2 mb - 0.00 in0.0 mm 0.00 in0.0 mm
04:10 AM 53.9°F12.2°C 53.1°F11.7°C 97% Calm Calm -- 29.89 in1012.2 mb - 0.00 in0.0 mm 0.00 in0.0 mm
04:20 AM 54.0°F12.2°C 53.2°F11.8°C 97% Calm Calm -- 29.88 in1011.9 mb - 0.00 in0.0 mm 0.00 in0.0 mm
04:30 AM 54.1°F12.3°C 53.3°F11.8°C 97% Calm Calm -- 29.88 in1011.9 mb - 0.00 in0.0 mm 0.00 in0.0 mm
04:40 AM 54.2°F12.3°C 53.3°F11.8°C 97% Calm Calm 1.3 mph2.1 kmh 29.89 in1012.2 mb - 0.00 in0.0 mm 0.00 in0.0 mm
04:50 AM 54.3°F12.4°C 53.5°F11.9°C 97% Calm Calm -- 29.89 in1012.2 mb - 0.00 in0.0 mm 0.00 in0.0 mm
05:00 AM 54.4°F12.4°C 53.6°F12.0°C 97% Calm Calm -- 29.89 in1012.2 mb - 0.00 in0.0 mm 0.00 in0.0 mm
05:10 AM 54.5°F12.5°C 53.7°F12.1°C 97% 1.5 mph SE2.4 kmh SE 2.6 mph4.2 kmh 29.88 in1011.9 mb - 0.00 in0.0 mm 0.00 in0.0 mm
05:20 AM 54.5°F12.5°C 53.7°F12.1°C 97% Calm Calm -- 29.88 in1011.9 mb - 0.00 in0.0 mm 0.00 in0.0 mm
05:30 AM 54.5°F12.5°C 53.7°F12.1°C 97% Calm Calm -- 29.88 in1011.9 mb - 0.00 in0.0 mm 0.00 in0.0 mm
05:40 AM 54.6°F12.6°C 53.8°F12.1°C 97% Calm Calm -- 29.88 in1011.9 mb - 0.00 in0.0 mm 0.00 in0.0 mm
05:50 AM 54.8°F12.7°C 53.9°F12.2°C 97% Calm Calm -- 29.89 in1012.2 mb - 0.00 in0.0 mm 0.00 in0.0 mm
06:00 AM 55.1°F12.8°C 54.2°F12.3°C 97% 0.4 mph SSE0.6 kmh SSE 1.3 mph2.1 kmh 29.90 in1012.5 mb - 0.00 in0.0 mm 0.00 in0.0 mm
06:10 AM 55.4°F13.0°C 54.6°F12.6°C 97% Calm Calm -- 29.90 in1012.5 mb - 0.00 in0.0 mm 0.00 in0.0 mm
06:20 AM 55.6°F13.1°C 54.8°F12.7°C 97% 0.3 mph WSW0.5 kmh WSW 2.6 mph4.2 kmh 29.91 in1012.9 mb - 0.00 in0.0 mm 0.00 in0.0 mm
06:30 AM 55.9°F13.3°C 55.1°F12.8°C 97% 0.2 mph SW0.3 kmh SW 1.3 mph2.1 kmh 29.91 in1012.9 mb - 0.00 in0.0 mm 0.00 in0.0 mm
06:40 AM 56.1°F13.4°C 55.3°F12.9°C 97% 0.2 mph SW0.3 kmh SW 1.3 mph2.1 kmh 29.92 in1013.2 mb - 0.00 in0.0 mm 0.00 in0.0 mm
06:50 AM 56.4°F13.6°C 55.6°F13.1°C 97% 1.8 mph SW2.9 kmh SW 2.6 mph4.2 kmh 29.93 in1013.5 mb - 0.00 in0.0 mm 0.00 in0.0 mm
07:00 AM 56.7°F13.7°C 55.9°F13.3°C 97% 0.1 mph ENE0.2 kmh ENE 1.3 mph2.1 kmh 29.94 in1013.9 mb - 0.00 in0.0 mm 0.00 in0.0 mm
07:10 AM 56.9°F13.8°C 56.1°F13.4°C 97% 1.2 mph SSE1.9 kmh SSE 1.3 mph2.1 kmh 29.94 in1013.9 mb - 0.00 in0.0 mm 0.00 in0.0 mm
07:20 AM 57.2°F14.0°C 56.4°F13.6°C 97% 0.2 mph SSW0.3 kmh SSW 2.6 mph4.2 kmh 29.95 in1014.2 mb - 0.00 in0.0 mm 0.00 in0.0 mm
07:30 AM 57.5°F14.2°C 56.4°F13.6°C 96% 2.3 mph SSE3.7 kmh SSE 2.6 mph4.2 kmh 29.95 in1014.2 mb - 0.00 in0.0 mm 0.00 in0.0 mm
07:40 AM 57.7°F14.3°C 56.6°F13.7°C 96% Calm Calm 1.3 mph2.1 kmh 29.96 in1014.6 mb - 0.00 in0.0 mm 0.00 in0.0 mm
07:50 AM 58.2°F14.6°C 57.0°F13.9°C 96% 0.8 mph SW1.3 kmh SW 1.3 mph2.1 kmh 29.96 in1014.6 mb - 0.00 in0.0 mm 0.00 in0.0 mm
08:00 AM 58.7°F14.8°C 57.0°F13.9°C 94% 2.1 mph WSW3.4 kmh WSW 2.6 mph4.2 kmh 29.96 in1014.6 mb - 0.00 in0.0 mm 0.00 in0.0 mm
08:10 AM 59.0°F15.0°C 57.2°F14.0°C 94% Calm Calm 2.6 mph4.2 kmh 29.97 in1014.9 mb - 0.00 in0.0 mm 0.00 in0.0 mm
08:20 AM 59.8°F15.4°C 57.8°F14.3°C 93% 0.1 mph NNW0.2 kmh NNW 2.6 mph4.2 kmh 29.96 in1014.6 mb - 0.00 in0.0 mm 0.00 in0.0 mm
08:30 AM 60.3°F15.7°C 57.9°F14.4°C 92% 1.4 mph SW2.3 kmh SW 2.6 mph4.2 kmh 29.96 in1014.6 mb - 0.00 in0.0 mm 0.00 in0.0 mm
08:40 AM 60.8°F16.0°C 57.5°F14.2°C 89% 1.3 mph NW2.1 kmh NW 2.6 mph4.2 kmh 29.97 in1014.9 mb - 0.00 in0.0 mm 0.00 in0.0 mm
08:50 AM 61.4°F16.3°C 57.8°F14.3°C 88% Calm Calm -- 29.96 in1014.6 mb - 0.00 in0.0 mm 0.00 in0.0 mm
09:00 AM 62.2°F16.8°C 58.0°F14.4°C 86% 0.4 mph SW0.6 kmh SW 2.6 mph4.2 kmh 29.97 in1014.9 mb - 0.00 in0.0 mm 0.00 in0.0 mm
09:10 AM 62.5°F16.9°C 58.0°F14.4°C 85% 1.4 mph WSW2.3 kmh WSW 1.3 mph2.1 kmh 29.97 in1014.9 mb - 0.00 in0.0 mm 0.00 in0.0 mm
09:20 AM 63.8°F17.7°C 58.8°F14.9°C 84% 1.2 mph SW1.9 kmh SW 2.6 mph4.2 kmh 29.96 in1014.6 mb - 0.00 in0.0 mm 0.00 in0.0 mm
09:30 AM 64.7°F18.2°C 58.4°F14.7°C 80% 1.0 mph S1.6 kmh S 2.6 mph4.2 kmh 29.96 in1014.6 mb - 0.00 in0.0 mm 0.00 in0.0 mm
09:40 AM 65.0°F18.3°C 58.0°F14.4°C 78% 2.0 mph E3.2 kmh E 2.6 mph4.2 kmh 29.96 in1014.6 mb - 0.00 in0.0 mm 0.00 in0.0 mm
09:50 AM 65.7°F18.7°C 59.4°F15.2°C 80% 0.4 mph W0.6 kmh W 2.6 mph4.2 kmh 29.97 in1014.9 mb - 0.00 in0.0 mm 0.00 in0.0 mm
10:00 AM 65.9°F18.8°C 58.8°F14.9°C 78% 2.4 mph SE3.9 kmh SE 2.6 mph4.2 kmh 29.97 in1014.9 mb - 0.00 in0.0 mm 0.00 in0.0 mm
10:10 AM 65.9°F18.8°C 59.2°F15.1°C 79% 2.8 mph WNW4.5 kmh WNW 2.6 mph4.2 kmh 29.97 in1014.9 mb - 0.00 in0.0 mm 0.00 in0.0 mm
10:20 AM 66.1°F18.9°C 58.7°F14.8°C 77% 1.7 mph SSW2.7 kmh SSW 2.6 mph4.2 kmh 29.97 in1014.9 mb - 0.00 in0.0 mm 0.00 in0.0 mm
10:30 AM 66.7°F19.3°C 58.9°F14.9°C 76% 2.0 mph S3.2 kmh S 2.6 mph4.2 kmh 29.97 in1014.9 mb - 0.00 in0.0 mm 0.00 in0.0 mm
10:40 AM 67.0°F19.4°C 59.5°F15.3°C 77% 2.4 mph NNW3.9 kmh NNW 5.2 mph8.4 kmh 29.97 in1014.9 mb - 0.00 in0.0 mm 0.00 in0.0 mm
10:50 AM 67.1°F19.5°C 58.9°F14.9°C 75% 2.4 mph S3.9 kmh S 2.6 mph4.2 kmh 29.97 in1014.9 mb - 0.00 in0.0 mm 0.00 in0.0 mm
11:00 AM 67.5°F19.7°C 60.0°F15.6°C 77% 1.9 mph S3.1 kmh S 2.6 mph4.2 kmh 29.97 in1014.9 mb - 0.00 in0.0 mm 0.00 in0.0 mm
11:10 AM 68.3°F20.2°C 60.1°F15.6°C 75% 2.0 mph SW3.2 kmh SW 2.6 mph4.2 kmh 29.97 in1014.9 mb - 0.00 in0.0 mm 0.00 in0.0 mm
11:20 AM 69.0°F20.6°C 60.7°F15.9°C 75% 2.7 mph W4.3 kmh W 5.2 mph8.4 kmh 29.97 in1014.9 mb - 0.00 in0.0 mm 0.00 in0.0 mm
11:30 AM 69.3°F20.7°C 60.3°F15.7°C 73% 2.2 mph ENE3.5 kmh ENE 2.6 mph4.2 kmh 29.98 in1015.2 mb - 0.00 in0.0 mm 0.00 in0.0 mm
11:40 AM 69.8°F21.0°C 60.3°F15.7°C 72% 0.9 mph WSW1.4 kmh WSW 1.3 mph2.1 kmh 29.98 in1015.2 mb - 0.00 in0.0 mm 0.00 in0.0 mm
11:50 AM 70.4°F21.3°C 60.5°F15.8°C 71% 1.7 mph ENE2.7 kmh ENE 2.6 mph4.2 kmh 29.98 in1015.2 mb - 0.00 in0.0 mm 0.00 in0.0 mm
12:00 PM 70.7°F21.5°C 60.4°F15.8°C 70% 2.4 mph SW3.9 kmh SW 5.2 mph8.4 kmh 29.98 in1015.2 mb - 0.00 in0.0 mm 0.00 in0.0 mm
12:10 PM 70.9°F21.6°C 60.2°F15.7°C 69% 2.1 mph SSE3.4 kmh SSE 2.6 mph4.2 kmh 29.98 in1015.2 mb - 0.00 in0.0 mm 0.00 in0.0 mm
12:20 PM 71.6°F22.0°C 60.9°F16.1°C 69% 1.6 mph SE2.6 kmh SE 3.9 mph6.3 kmh 29.99 in1015.6 mb - 0.00 in0.0 mm 0.00 in0.0 mm
12:30 PM 71.8°F22.1°C 59.8°F15.4°C 66% 1.8 mph E2.9 kmh E 2.6 mph4.2 kmh 29.99 in1015.6 mb - 0.00 in0.0 mm 0.00 in0.0 mm
12:40 PM 71.9°F22.2°C 60.3°F15.7°C 67% 2.7 mph E4.3 kmh E 2.6 mph4.2 kmh 29.99 in1015.6 mb - 0.00 in0.0 mm 0.00 in0.0 mm
12:50 PM 72.3°F22.4°C 59.9°F15.5°C 65% 2.2 mph E3.5 kmh E 2.6 mph4.2 kmh 29.99 in1015.6 mb - 0.00 in0.0 mm 0.00 in0.0 mm
01:00 PM 72.4°F22.4°C 60.4°F15.8°C 66% 2.5 mph ESE4.0 kmh ESE 2.6 mph4.2 kmh 29.99 in1015.6 mb - 0.00 in0.0 mm 0.00 in0.0 mm
01:10 PM 71.9°F22.2°C 60.7°F15.9°C 68% 1.4 mph ENE2.3 kmh ENE 3.9 mph6.3 kmh 30.00 in1015.9 mb - 0.00 in0.0 mm 0.00 in0.0 mm
01:20 PM 71.1°F21.7°C 59.2°F15.1°C 66% 2.5 mph S4.0 kmh S 3.9 mph6.3 kmh 29.99 in1015.6 mb - 0.00 in0.0 mm 0.00 in0.0 mm
01:30 PM 70.4°F21.3°C 58.1°F14.5°C 65% 2.0 mph SE3.2 kmh SE 2.6 mph4.2 kmh 29.99 in1015.6 mb - 0.00 in0.0 mm 0.00 in0.0 mm
01:40 PM 70.1°F21.2°C 59.0°F15.0°C 68% 1.0 mph SE1.6 kmh SE 3.9 mph6.3 kmh 29.99 in1015.6 mb - 0.00 in0.0 mm 0.00 in0.0 mm
01:50 PM 69.4°F20.8°C 58.0°F14.4°C 67% 1.9 mph S3.1 kmh S 2.6 mph4.2 kmh 29.99 in1015.6 mb - 0.00 in0.0 mm 0.00 in0.0 mm
02:00 PM 68.7°F20.4°C 58.2°F14.6°C 69% 0.7 mph E1.1 kmh E 2.6 mph4.2 kmh 29.99 in1015.6 mb - 0.00 in0.0 mm 0.00 in0.0 mm
02:10 PM 68.2°F20.1°C 57.6°F14.2°C 69% 1.9 mph SSW3.1 kmh SSW 2.6 mph4.2 kmh 29.99 in1015.6 mb - 0.00 in0.0 mm 0.00 in0.0 mm
02:20 PM 67.8°F19.9°C 58.5°F14.7°C 72% 0.7 mph SSW1.1 kmh SSW 2.6 mph4.2 kmh 29.99 in1015.6 mb - 0.00 in0.0 mm 0.00 in0.0 mm
02:30 PM 67.6°F19.8°C 58.6°F14.8°C 73% 0.2 mph S0.3 kmh S 2.6 mph4.2 kmh 29.99 in1015.6 mb - 0.00 in0.0 mm 0.00 in0.0 mm
02:40 PM 67.6°F19.8°C 58.3°F14.6°C 72% 0.7 mph WSW1.1 kmh WSW 1.3 mph2.1 kmh 29.99 in1015.6 mb - 0.00 in0.0 mm 0.00 in0.0 mm
02:50 PM 67.5°F19.7°C 57.8°F14.3°C 71% 1.9 mph S3.1 kmh S 2.6 mph4.2 kmh 29.99 in1015.6 mb - 0.00 in0.0 mm 0.00 in0.0 mm
03:00 PM 67.5°F19.7°C 58.9°F14.9°C 74% 2.2 mph SE3.5 kmh SE 3.9 mph6.3 kmh 29.99 in1015.6 mb - 0.00 in0.0 mm 0.00 in0.0 mm
03:10 PM 67.6°F19.8°C 59.0°F15.0°C 74% 1.3 mph SE2.1 kmh SE 2.6 mph4.2 kmh 29.98 in1015.2 mb - 0.00 in0.0 mm 0.00 in0.0 mm
03:20 PM 67.4°F19.7°C 58.1°F14.5°C 72% 1.7 mph S2.7 kmh S 2.6 mph4.2 kmh 29.98 in1015.2 mb - 0.00 in0.0 mm 0.00 in0.0 mm
03:30 PM 67.2°F19.6°C 57.9°F14.4°C 72% 1.8 mph E2.9 kmh E 2.6 mph4.2 kmh 29.99 in1015.6 mb - 0.00 in0.0 mm 0.00 in0.0 mm
03:40 PM 67.0°F19.4°C 57.3°F14.1°C 71% 1.5 mph N2.4 kmh N 2.6 mph4.2 kmh 29.99 in1015.6 mb - 0.00 in0.0 mm 0.00 in0.0 mm
03:50 PM 67.0°F19.4°C 57.7°F14.3°C 72% 1.9 mph SW3.1 kmh SW 2.6 mph4.2 kmh 29.98 in1015.2 mb - 0.00 in0.0 mm 0.00 in0.0 mm
04:00 PM 67.1°F19.5°C 57.4°F14.1°C 71% 2.1 mph ESE3.4 kmh ESE 6.5 mph10.5 kmh 29.98 in1015.2 mb - 0.00 in0.0 mm 0.00 in0.0 mm
04:10 PM 67.2°F19.6°C 57.1°F13.9°C 70% 2.0 mph NE3.2 kmh NE 2.6 mph4.2 kmh 29.98 in1015.2 mb - 0.00 in0.0 mm 0.00 in0.0 mm
04:20 PM 67.2°F19.6°C 56.7°F13.7°C 69% 2.2 mph SW3.5 kmh SW 3.9 mph6.3 kmh 29.99 in1015.6 mb - 0.00 in0.0 mm 0.00 in0.0 mm
04:30 PM 66.9°F19.4°C 56.4°F13.6°C 69% 1.7 mph S2.7 kmh S 2.6 mph4.2 kmh 29.98 in1015.2 mb - 0.00 in0.0 mm 0.00 in0.0 mm
04:40 PM 67.1°F19.5°C 55.4°F13.0°C 66% 2.1 mph S3.4 kmh S 5.2 mph8.4 kmh 29.99 in1015.6 mb - 0.00 in0.0 mm 0.00 in0.0 mm
04:50 PM 67.2°F19.6°C 56.3°F13.5°C 68% 2.2 mph SE3.5 kmh SE 3.9 mph6.3 kmh 29.98 in1015.2 mb - 0.00 in0.0 mm 0.00 in0.0 mm
05:00 PM 66.9°F19.4°C 56.4°F13.6°C 69% 2.0 mph E3.2 kmh E 2.6 mph4.2 kmh 29.98 in1015.2 mb - 0.00 in0.0 mm 0.00 in0.0 mm
05:10 PM 66.5°F19.2°C 54.8°F12.7°C 66% 2.1 mph SE3.4 kmh SE 2.6 mph4.2 kmh 29.99 in1015.6 mb - 0.00 in0.0 mm 0.00 in0.0 mm
05:20 PM 66.0°F18.9°C 55.2°F12.9°C 68% 2.1 mph SE3.4 kmh SE 2.6 mph4.2 kmh 29.98 in1015.2 mb - 0.00 in0.0 mm 0.00 in0.0 mm
05:30 PM 65.6°F18.7°C 55.9°F13.3°C 71% 0.6 mph NW1.0 kmh NW 2.6 mph4.2 kmh 29.98 in1015.2 mb - 0.00 in0.0 mm 0.00 in0.0 mm
05:40 PM 65.3°F18.5°C 54.8°F12.7°C 69% 0.9 mph E1.4 kmh E 2.6 mph4.2 kmh 29.98 in1015.2 mb - 0.00 in0.0 mm 0.00 in0.0 mm
05:50 PM 64.9°F18.3°C 54.8°F12.7°C 70% 1.2 mph ENE1.9 kmh ENE 2.6 mph4.2 kmh 29.98 in1015.2 mb - 0.00 in0.0 mm 0.00 in0.0 mm
06:00 PM 64.5°F18.1°C 55.6°F13.1°C 73% 2.1 mph E3.4 kmh E 2.6 mph4.2 kmh 29.98 in1015.2 mb - 0.00 in0.0 mm 0.00 in0.0 mm
06:10 PM 64.2°F17.9°C 54.5°F12.5°C 71% 1.9 mph E3.1 kmh E 2.6 mph4.2 kmh 29.97 in1014.9 mb - 0.00 in0.0 mm 0.00 in0.0 mm
06:20 PM 63.9°F17.7°C 55.1°F12.8°C 73% 1.5 mph E2.4 kmh E 2.6 mph4.2 kmh 29.97 in1014.9 mb - 0.00 in0.0 mm 0.00 in0.0 mm
06:30 PM 63.7°F17.6°C 55.3°F12.9°C 74% 1.2 mph ENE1.9 kmh ENE 2.6 mph4.2 kmh 29.97 in1014.9 mb - 0.00 in0.0 mm 0.00 in0.0 mm
06:40 PM 63.7°F17.6°C 54.1°F12.3°C 71% 1.8 mph S2.9 kmh S 3.9 mph6.3 kmh 29.97 in1014.9 mb - 0.00 in0.0 mm 0.00 in0.0 mm
06:50 PM 63.4°F17.4°C 54.2°F12.3°C 72% 1.8 mph E2.9 kmh E 2.6 mph4.2 kmh 29.98 in1015.2 mb - 0.00 in0.0 mm 0.00 in0.0 mm
07:00 PM 63.0°F17.2°C 53.4°F11.9°C 71% 1.7 mph SW2.7 kmh SW 2.6 mph4.2 kmh 29.98 in1015.2 mb - 0.00 in0.0 mm 0.00 in0.0 mm
07:10 PM 62.7°F17.1°C 53.9°F12.2°C 73% 1.1 mph SE1.8 kmh SE 2.6 mph4.2 kmh 29.98 in1015.2 mb - 0.00 in0.0 mm 0.00 in0.0 mm
07:20 PM 62.3°F16.8°C 54.2°F12.3°C 75% 1.3 mph E2.1 kmh E 2.6 mph4.2 kmh 29.98 in1015.2 mb - 0.00 in0.0 mm 0.00 in0.0 mm
07:30 PM 61.9°F16.6°C 53.9°F12.2°C 75% 1.2 mph SE1.9 kmh SE 2.6 mph4.2 kmh 29.98 in1015.2 mb - 0.00 in0.0 mm 0.00 in0.0 mm
07:40 PM 61.5°F16.4°C 53.5°F11.9°C 75% 1.1 mph SE1.8 kmh SE 1.3 mph2.1 kmh 29.98 in1015.2 mb - 0.00 in0.0 mm 0.00 in0.0 mm
07:50 PM 61.1°F16.2°C 53.1°F11.7°C 75% 1.7 mph ESE2.7 kmh ESE 5.2 mph8.4 kmh 29.98 in1015.2 mb - 0.00 in0.0 mm 0.00 in0.0 mm
08:00 PM 60.8°F16.0°C 53.2°F11.8°C 76% 1.4 mph SE2.3 kmh SE 2.6 mph4.2 kmh 29.98 in1015.2 mb - 0.00 in0.0 mm 0.00 in0.0 mm
08:10 PM 60.4°F15.8°C 53.5°F11.9°C 78% 0.7 mph ESE1.1 kmh ESE 2.6 mph4.2 kmh 29.98 in1015.2 mb - 0.00 in0.0 mm 0.00 in0.0 mm
08:20 PM 60.0°F15.6°C 53.2°F11.8°C 78% 0.7 mph S1.1 kmh S 2.6 mph4.2 kmh 29.98 in1015.2 mb - 0.00 in0.0 mm 0.00 in0.0 mm
08:30 PM 59.8°F15.4°C 53.3°F11.8°C 79% 0.2 mph S0.3 kmh S -- 29.99 in1015.6 mb - 0.00 in0.0 mm 0.00 in0.0 mm
08:40 PM 59.4°F15.2°C 53.2°F11.8°C 80% Calm Calm -- 29.99 in1015.6 mb - 0.00 in0.0 mm 0.00 in0.0 mm
08:50 PM 58.9°F14.9°C 53.1°F11.7°C 81% 0.3 mph S0.5 kmh S -- 29.99 in1015.6 mb - 0.00 in0.0 mm 0.00 in0.0 mm
09:00 PM 58.7°F14.8°C 53.6°F12.0°C 83% 1.5 mph S2.4 kmh S 3.9 mph6.3 kmh 29.99 in1015.6 mb - 0.00 in0.0 mm 0.00 in0.0 mm
09:10 PM 58.7°F14.8°C 53.5°F11.9°C 83% 0.7 mph SSW1.1 kmh SSW 2.6 mph4.2 kmh 29.99 in1015.6 mb - 0.00 in0.0 mm 0.00 in0.0 mm
09:20 PM 58.4°F14.7°C 53.6°F12.0°C 84% 1.8 mph E2.9 kmh E 2.6 mph4.2 kmh 29.99 in1015.6 mb - 0.00 in0.0 mm 0.00 in0.0 mm
09:30 PM 58.0°F14.4°C 53.9°F12.2°C 86% 2.1 mph E3.4 kmh E 2.6 mph4.2 kmh 29.99 in1015.6 mb - 0.00 in0.0 mm 0.00 in0.0 mm
09:40 PM 57.7°F14.3°C 53.9°F12.2°C 87% 1.8 mph SE2.9 kmh SE 2.6 mph4.2 kmh 29.99 in1015.6 mb - 0.00 in0.0 mm 0.00 in0.0 mm
09:50 PM 57.3°F14.1°C 53.5°F11.9°C 87% 2.1 mph SSE3.4 kmh SSE 2.6 mph4.2 kmh 29.99 in1015.6 mb - 0.00 in0.0 mm 0.00 in0.0 mm
10:00 PM 57.0°F13.9°C 53.5°F11.9°C 88% 1.0 mph ESE1.6 kmh ESE 2.6 mph4.2 kmh 29.99 in1015.6 mb - 0.00 in0.0 mm 0.00 in0.0 mm
10:10 PM 56.8°F13.8°C 53.6°F12.0°C 89% 0.2 mph S0.3 kmh S 1.3 mph2.1 kmh 29.99 in1015.6 mb - 0.00 in0.0 mm 0.00 in0.0 mm
10:20 PM 56.5°F13.6°C 53.9°F12.2°C 91% 0.4 mph SSE0.6 kmh SSE 2.6 mph4.2 kmh 29.99 in1015.6 mb - 0.00 in0.0 mm 0.00 in0.0 mm
10:30 PM 56.0°F13.3°C 53.4°F11.9°C 91% 0.4 mph S0.6 kmh S 2.6 mph4.2 kmh 29.99 in1015.6 mb - 0.00 in0.0 mm 0.00 in0.0 mm
10:40 PM 55.7°F13.2°C 53.4°F11.9°C 92% 2.1 mph E3.4 kmh E 2.6 mph4.2 kmh 29.99 in1015.6 mb - 0.00 in0.0 mm 0.00 in0.0 mm
10:50 PM 55.3°F12.9°C 53.3°F11.8°C 93% 0.8 mph E1.3 kmh E 2.6 mph4.2 kmh 29.98 in1015.2 mb - 0.00 in0.0 mm 0.00 in0.0 mm
11:10 PM 54.1°F12.3°C 52.7°F11.5°C 95% 2.6 mph E4.2 kmh E 2.6 mph4.2 kmh 29.97 in1014.9 mb - 0.00 in0.0 mm 0.00 in0.0 mm
11:20 PM 53.8°F12.1°C 52.7°F11.5°C 96% 0.1 mph SE0.2 kmh SE 2.6 mph4.2 kmh 29.97 in1014.9 mb - 0.00 in0.0 mm 0.00 in0.0 mm
11:30 PM 53.4°F11.9°C 52.3°F11.3°C 96% 0.1 mph SE0.2 kmh SE 1.3 mph2.1 kmh 29.97 in1014.9 mb - 0.00 in0.0 mm 0.00 in0.0 mm
11:40 PM 53.1°F11.7°C 52.0°F11.1°C 96% Calm Calm -- 29.97 in1014.9 mb - 0.00 in0.0 mm 0.00 in0.0 mm
11:50 PM 52.9°F11.6°C 52.1°F11.2°C 97% Calm Calm -- 29.97 in1014.9 mb - 0.00 in0.0 mm 0.00 in0.0 mm